createdAt,value
2022-12-24T00:01:48.475Z,12.10
2022-12-24T00:04:16.542Z,12.10
2022-12-24T00:06:44.765Z,12.20
2022-12-24T00:09:14.875Z,12.10
2022-12-24T00:11:42.946Z,12.40
2022-12-24T00:14:12.393Z,11.80
2022-12-24T00:16:40.839Z,11.70
2022-12-24T00:19:09.024Z,11.70
2022-12-24T00:21:38.355Z,11.60
2022-12-24T00:24:06.825Z,11.60
2022-12-24T00:26:35.721Z,11.60
2022-12-24T00:29:04.902Z,11.70
2022-12-24T00:31:34.347Z,11.60
2022-12-24T00:34:12.489Z,11.50
2022-12-24T00:36:41.566Z,11.50
2022-12-24T00:39:09.660Z,11.40
2022-12-24T00:41:43.706Z,11.30
2022-12-24T00:44:12.205Z,11.40
2022-12-24T00:46:47.257Z,11.50
2022-12-24T00:49:15.953Z,11.40
2022-12-24T00:51:44.087Z,11.50
2022-12-24T00:54:12.600Z,11.60
2022-12-24T00:56:40.639Z,11.60
2022-12-24T00:59:08.746Z,11.70
2022-12-24T01:01:37.876Z,11.60
2022-12-24T01:04:25.315Z,11.60
2022-12-24T01:06:53.353Z,11.60
2022-12-24T01:09:21.788Z,11.60
2022-12-24T01:11:52.003Z,11.60
2022-12-24T01:14:20.540Z,11.50
2022-12-24T01:16:57.419Z,11.40
2022-12-24T01:19:26.845Z,11.40
2022-12-24T01:22:02.098Z,11.40
2022-12-24T01:24:30.114Z,11.20
2022-12-24T01:26:58.258Z,11.10
2022-12-24T01:29:26.671Z,11.10
2022-12-24T01:32:08.224Z,11.00
2022-12-24T01:34:38.037Z,11.30
2022-12-24T01:37:06.616Z,11.40
2022-12-24T01:39:34.900Z,11.40
2022-12-24T01:42:20.852Z,11.40
2022-12-24T01:44:52.459Z,11.50
2022-12-24T01:47:23.542Z,11.40
2022-12-24T01:50:13.543Z,11.40
2022-12-24T01:52:41.675Z,11.40
2022-12-24T01:55:13.916Z,11.40
2022-12-24T01:57:47.537Z,11.40
2022-12-24T02:00:17.753Z,11.30
2022-12-24T02:02:47.694Z,11.40
2022-12-24T02:05:23.728Z,11.30
2022-12-24T02:07:52.864Z,11.40
2022-12-24T02:10:22.138Z,11.60
2022-12-24T02:12:52.320Z,11.50
2022-12-24T02:15:22.242Z,11.60
2022-12-24T02:18:01.303Z,11.60
2022-12-24T02:20:50.475Z,11.50
2022-12-24T02:23:43.601Z,11.60
2022-12-24T02:26:30.252Z,11.60
2022-12-24T02:29:28.592Z,11.60
2022-12-24T02:32:04.038Z,11.70
2022-12-24T02:34:37.355Z,11.70
2022-12-24T02:37:08.776Z,11.80
2022-12-24T02:39:42.803Z,11.80
2022-12-24T02:42:13.587Z,11.80
2022-12-24T02:44:45.893Z,11.80
2022-12-24T02:47:18.755Z,11.70
2022-12-24T02:49:48.821Z,11.60
2022-12-24T02:52:36.162Z,11.60
2022-12-24T02:55:07.288Z,11.50
2022-12-24T02:57:48.518Z,11.50
2022-12-24T03:00:19.598Z,11.50
2022-12-24T03:03:07.514Z,11.50
2022-12-24T03:05:41.166Z,11.50
2022-12-24T03:08:18.161Z,11.60
2022-12-24T03:10:54.900Z,11.60
2022-12-24T03:13:25.243Z,11.50
2022-12-24T03:15:53.478Z,11.60
2022-12-24T03:18:26.212Z,11.50
2022-12-24T03:20:58.949Z,11.60
2022-12-24T03:23:27.215Z,11.60
2022-12-24T03:25:55.856Z,11.50
2022-12-24T03:28:29.440Z,11.50
2022-12-24T03:30:57.551Z,11.00
2022-12-24T03:33:27.135Z,11.50
2022-12-24T03:35:55.289Z,11.50
2022-12-24T03:38:23.313Z,11.50
2022-12-24T03:40:51.425Z,11.50
2022-12-24T03:43:19.673Z,11.50
2022-12-24T03:45:47.766Z,11.50
2022-12-24T03:48:17.796Z,11.50
2022-12-24T03:50:47.371Z,11.40
2022-12-24T03:53:15.773Z,11.40
2022-12-24T03:55:43.813Z,11.40
2022-12-24T03:58:11.877Z,11.40
2022-12-24T04:00:39.923Z,11.40
2022-12-24T04:03:08.211Z,11.30
2022-12-24T04:05:36.345Z,11.10
2022-12-24T04:08:05.897Z,11.30
2022-12-24T04:10:33.960Z,11.30
2022-12-24T04:13:03.037Z,11.30
2022-12-24T04:15:31.938Z,11.40
2022-12-24T04:17:59.912Z,11.40
2022-12-24T04:20:28.005Z,11.40
2022-12-24T04:22:56.054Z,11.40
2022-12-24T04:25:25.475Z,11.40
2022-12-24T04:27:53.540Z,11.40
2022-12-24T04:30:21.549Z,11.30
2022-12-24T04:32:49.581Z,11.40
2022-12-24T04:35:17.886Z,11.40
2022-12-24T04:37:45.896Z,11.30
2022-12-24T04:40:16.009Z,11.30
2022-12-24T04:42:46.538Z,11.30
2022-12-24T04:45:14.674Z,11.40
2022-12-24T04:47:45.007Z,11.30
2022-12-24T04:50:13.232Z,11.40
2022-12-24T04:52:41.238Z,11.40
2022-12-24T04:55:10.148Z,11.40
2022-12-24T04:57:38.464Z,11.20
2022-12-24T05:00:09.668Z,11.10
2022-12-24T05:02:38.076Z,11.10
2022-12-24T05:05:07.624Z,11.00
2022-12-24T05:07:35.919Z,11.00
2022-12-24T05:10:03.983Z,10.90
2022-12-24T05:12:31.977Z,10.90
2022-12-24T05:14:59.992Z,10.90
2022-12-24T05:17:29.424Z,11.00
2022-12-24T05:19:57.440Z,11.00
2022-12-24T05:22:42.786Z,11.00
2022-12-24T05:25:28.739Z,10.90
2022-12-24T05:27:57.259Z,10.80
2022-12-24T05:30:26.323Z,10.80
2022-12-24T05:32:57.857Z,10.80
2022-12-24T05:35:25.865Z,10.90
2022-12-24T05:37:53.859Z,10.90
2022-12-24T05:40:22.251Z,10.90
2022-12-24T05:42:51.353Z,10.90
2022-12-24T05:45:19.388Z,10.90
2022-12-24T05:47:47.756Z,10.90
2022-12-24T05:50:17.302Z,11.00
2022-12-24T05:52:45.428Z,11.00
2022-12-24T05:55:13.883Z,10.90
2022-12-24T05:57:42.121Z,10.90
2022-12-24T06:00:11.287Z,11.00
2022-12-24T06:02:39.408Z,11.10
2022-12-24T06:05:07.925Z,11.10
2022-12-24T06:07:37.405Z,11.10
2022-12-24T06:10:06.155Z,11.00
2022-12-24T06:12:34.195Z,11.00
2022-12-24T06:15:02.246Z,11.00
2022-12-24T06:17:30.285Z,10.90
2022-12-24T06:19:58.272Z,10.80
2022-12-24T06:22:26.262Z,10.70
2022-12-24T06:24:56.532Z,10.70
2022-12-24T06:27:24.585Z,10.70
2022-12-24T06:29:52.832Z,10.80
2022-12-24T06:32:21.865Z,10.70
2022-12-24T06:34:53.068Z,10.60
2022-12-24T06:37:21.895Z,10.60
2022-12-24T06:39:49.920Z,10.60
2022-12-24T06:42:19.289Z,10.50
2022-12-24T06:44:47.325Z,10.50
2022-12-24T06:47:15.328Z,10.40
2022-12-24T06:49:44.336Z,10.40
2022-12-24T06:52:12.397Z,10.40
2022-12-24T06:54:40.397Z,10.30
2022-12-24T06:57:08.472Z,10.20
2022-12-24T06:59:37.895Z,10.20
2022-12-24T07:02:05.980Z,10.20
2022-12-24T07:04:34.466Z,10.10
2022-12-24T07:07:03.213Z,10.10
2022-12-24T07:09:32.166Z,10.10
2022-12-24T07:12:00.299Z,10.10
2022-12-24T07:14:28.389Z,10.10
2022-12-24T07:16:59.391Z,10.00
2022-12-24T07:19:27.606Z,9.90
2022-12-24T07:21:55.639Z,9.90
2022-12-24T07:24:23.729Z,9.90
2022-12-24T07:26:52.795Z,9.80
2022-12-24T07:29:20.999Z,9.70
2022-12-24T07:31:49.025Z,9.70
2022-12-24T07:34:18.481Z,9.70
2022-12-24T07:36:47.317Z,9.60
2022-12-24T07:39:15.364Z,9.60
2022-12-24T07:41:43.454Z,9.60
2022-12-24T07:44:15.154Z,9.60
2022-12-24T07:46:43.597Z,9.50
2022-12-24T07:49:11.877Z,9.50
2022-12-24T07:51:48.206Z,9.60
2022-12-24T07:54:16.261Z,9.60
2022-12-24T07:56:44.651Z,9.60
2022-12-24T07:59:14.143Z,9.60
2022-12-24T08:01:42.595Z,9.50
2022-12-24T08:04:11.663Z,9.50
2022-12-24T08:06:40.097Z,9.50
2022-12-24T08:09:09.549Z,9.50
2022-12-24T08:11:37.621Z,9.40
2022-12-24T08:14:05.640Z,9.50
2022-12-24T08:16:39.675Z,9.50
2022-12-24T08:19:07.771Z,9.40
2022-12-24T08:21:35.796Z,9.40
2022-12-24T08:24:03.851Z,9.30
2022-12-24T08:26:38.334Z,9.30
2022-12-24T08:29:06.816Z,9.30
2022-12-24T08:31:37.169Z,9.30
2022-12-24T08:34:24.964Z,9.30
2022-12-24T08:36:53.039Z,9.20
2022-12-24T08:39:21.145Z,9.30
2022-12-24T08:41:59.737Z,9.20
2022-12-24T08:44:27.841Z,9.20
2022-12-24T08:46:55.904Z,9.20
2022-12-24T08:49:24.042Z,9.10
2022-12-24T08:51:58.130Z,9.10
2022-12-24T08:54:26.546Z,9.10
2022-12-24T08:56:54.961Z,9.10
2022-12-24T08:59:24.449Z,9.00
2022-12-24T09:01:52.773Z,9.00
2022-12-24T09:04:20.928Z,9.00
2022-12-24T09:06:58.120Z,9.00
2022-12-24T09:09:26.233Z,9.00
2022-12-24T09:11:57.409Z,9.00
2022-12-24T09:14:26.981Z,9.00
2022-12-24T09:17:01.951Z,9.00
2022-12-24T09:19:30.184Z,9.00
2022-12-24T09:21:58.307Z,9.00
2022-12-24T09:24:33.029Z,9.10
2022-12-24T09:27:02.635Z,9.10
2022-12-24T09:29:32.791Z,9.20
2022-12-24T09:32:01.093Z,9.20
2022-12-24T09:34:32.455Z,9.30
2022-12-24T09:37:03.101Z,9.30
2022-12-24T09:39:31.326Z,9.30
2022-12-24T09:42:08.732Z,9.40
2022-12-24T09:44:44.954Z,9.40
2022-12-24T09:47:23.867Z,9.40
2022-12-24T09:50:02.972Z,9.40
2022-12-24T09:52:36.259Z,9.50
2022-12-24T09:55:15.694Z,9.50
2022-12-24T09:57:45.408Z,9.50
2022-12-24T10:00:22.748Z,9.50
2022-12-24T10:02:51.112Z,9.60
2022-12-24T10:05:25.869Z,9.60
2022-12-24T10:07:59.817Z,9.60
2022-12-24T10:10:37.533Z,9.60
2022-12-24T10:13:12.685Z,9.60
2022-12-24T10:15:57.146Z,9.60
2022-12-24T10:18:34.899Z,9.70
2022-12-24T10:21:11.813Z,9.60
2022-12-24T10:23:45.761Z,9.70
2022-12-24T10:26:17.059Z,9.70
2022-12-24T10:28:49.902Z,9.70
2022-12-24T10:31:24.264Z,9.70
2022-12-24T10:33:58.247Z,9.80
2022-12-24T10:36:28.588Z,9.80
2022-12-24T10:38:57.718Z,9.90
2022-12-24T10:41:27.559Z,9.90
2022-12-24T10:43:56.385Z,9.90
2022-12-24T10:46:32.563Z,10.00
2022-12-24T10:49:02.864Z,10.00
2022-12-24T10:51:38.554Z,10.00
2022-12-24T10:54:11.527Z,10.00
2022-12-24T10:56:43.299Z,10.10
2022-12-24T10:59:25.687Z,10.00
2022-12-24T11:02:43.739Z,10.10
2022-12-24T11:05:30.996Z,10.10
2022-12-24T11:08:02.231Z,10.10
2022-12-24T11:10:31.021Z,10.10
2022-12-24T11:13:27.913Z,10.10
2022-12-24T11:15:48.085Z,10.10
2022-12-24T11:18:16.872Z,10.20
2022-12-24T11:20:52.560Z,10.20
2022-12-24T11:23:21.530Z,10.10
2022-12-24T11:25:52.078Z,10.00
2022-12-24T11:28:23.811Z,10.10
2022-12-24T11:31:03.857Z,10.10
2022-12-24T11:33:33.147Z,10.10
2022-12-24T11:36:13.477Z,10.10
2022-12-24T11:38:41.636Z,10.20
2022-12-24T11:41:12.599Z,10.20
2022-12-24T11:43:45.515Z,10.20
2022-12-24T11:46:20.390Z,10.20
2022-12-24T11:48:50.003Z,10.20
2022-12-24T11:51:25.494Z,10.60
2022-12-24T11:54:05.704Z,10.20
2022-12-24T11:56:41.636Z,10.20
2022-12-24T11:59:16.677Z,10.20
2022-12-24T12:01:53.774Z,10.20
2022-12-24T12:04:25.470Z,10.20
2022-12-24T12:07:00.273Z,10.20
2022-12-24T12:09:32.383Z,10.20
2022-12-24T12:12:03.833Z,10.20
2022-12-24T12:14:35.698Z,10.20
2022-12-24T12:17:14.175Z,10.30
2022-12-24T12:19:46.692Z,10.20
2022-12-24T12:22:27.287Z,10.30
2022-12-24T12:24:57.917Z,10.40
2022-12-24T12:27:33.060Z,10.40
2022-12-24T12:30:04.861Z,10.30
2022-12-24T12:32:42.084Z,10.40
2022-12-24T12:35:20.360Z,10.50
2022-12-24T12:37:58.254Z,10.50
2022-12-24T12:40:37.625Z,10.50
2022-12-24T12:43:15.059Z,10.50
2022-12-24T12:45:54.050Z,10.60
2022-12-24T12:48:37.168Z,10.70
2022-12-24T12:51:09.759Z,10.70
2022-12-24T12:54:14.138Z,10.70
2022-12-24T12:56:52.871Z,10.70
2022-12-24T12:59:28.397Z,10.70
2022-12-24T13:02:04.870Z,10.50
2022-12-24T13:05:09.469Z,10.50
2022-12-24T13:07:56.065Z,10.40
2022-12-24T13:10:43.980Z,10.30
2022-12-24T13:13:44.333Z,10.30
2022-12-24T13:16:54.907Z,10.40
2022-12-24T13:19:38.651Z,10.40
2022-12-24T13:22:16.109Z,10.30
2022-12-24T13:24:52.105Z,10.30
2022-12-24T13:27:25.965Z,10.30
2022-12-24T13:29:56.886Z,10.30
2022-12-24T13:32:51.236Z,10.20
2022-12-24T13:35:40.238Z,10.10
2022-12-24T13:38:42.272Z,10.00
2022-12-24T13:41:58.297Z,9.90
2022-12-24T13:44:33.661Z,10.00
2022-12-24T13:47:26.832Z,9.90
2022-12-24T13:49:58.805Z,9.90
2022-12-24T13:52:32.022Z,10.00
2022-12-24T13:55:16.592Z,10.00
2022-12-24T13:57:49.102Z,10.10
2022-12-24T14:00:43.783Z,10.10
2022-12-24T14:03:25.469Z,10.20
2022-12-24T14:05:58.096Z,10.10
2022-12-24T14:08:34.457Z,10.10
2022-12-24T14:11:09.489Z,10.10
2022-12-24T14:14:11.225Z,10.10
2022-12-24T14:16:55.043Z,10.20
2022-12-24T14:19:25.597Z,10.00
2022-12-24T14:22:00.070Z,10.00
2022-12-24T14:24:33.029Z,10.00
2022-12-24T14:27:09.317Z,10.00
2022-12-24T14:29:44.508Z,10.00
2022-12-24T14:32:17.034Z,10.00
2022-12-24T14:34:45.866Z,9.90
2022-12-24T14:37:14.679Z,9.80
2022-12-24T14:39:47.783Z,9.80
2022-12-24T14:42:29.450Z,9.80
2022-12-24T14:45:06.474Z,9.70
2022-12-24T14:47:42.867Z,9.70
2022-12-24T14:50:32.293Z,9.70
2022-12-24T14:53:13.491Z,9.70
2022-12-24T14:55:46.302Z,9.70
2022-12-24T14:58:27.185Z,9.70
2022-12-24T15:00:58.389Z,9.60
2022-12-24T15:03:30.156Z,9.50
2022-12-24T15:06:00.859Z,9.50
2022-12-24T15:08:33.951Z,9.40
2022-12-24T15:11:05.237Z,9.40
2022-12-24T15:13:37.391Z,9.30
2022-12-24T15:16:09.082Z,9.20
2022-12-24T15:18:43.475Z,9.20
2022-12-24T15:21:18.271Z,9.10
2022-12-24T15:23:49.314Z,9.00
2022-12-24T15:26:26.274Z,9.00
2022-12-24T15:29:02.393Z,9.00
2022-12-24T15:31:31.918Z,8.90
2022-12-24T15:34:01.662Z,8.90
2022-12-24T15:36:32.764Z,8.90
2022-12-24T15:39:03.812Z,8.90
2022-12-24T15:41:59.011Z,8.90
2022-12-24T15:44:27.770Z,8.80
2022-12-24T15:47:00.706Z,8.70
2022-12-24T15:49:32.220Z,8.70
2022-12-24T15:52:06.654Z,8.60
2022-12-24T15:54:35.422Z,8.60
2022-12-24T15:57:22.779Z,8.60
2022-12-24T15:59:53.444Z,8.50
2022-12-24T16:02:37.758Z,8.50
2022-12-24T16:05:42.437Z,8.50
2022-12-24T16:08:29.634Z,8.50
2022-12-24T16:11:16.005Z,8.00
2022-12-24T16:13:52.943Z,8.50
2022-12-24T16:16:23.547Z,8.50
2022-12-24T16:18:55.674Z,8.40
2022-12-24T16:21:27.172Z,8.40
2022-12-24T16:23:59.311Z,8.40
2022-12-24T16:26:29.395Z,8.40
2022-12-24T16:28:57.544Z,8.40
2022-12-24T16:31:33.240Z,8.30
2022-12-24T16:34:02.441Z,8.30
2022-12-24T16:36:31.794Z,8.30
2022-12-24T16:39:18.743Z,8.20
2022-12-24T16:42:04.237Z,8.20
2022-12-24T16:44:32.272Z,8.20
2022-12-24T16:47:01.298Z,8.20
2022-12-24T16:49:30.857Z,8.20
2022-12-24T16:51:58.922Z,8.20
2022-12-24T16:54:30.066Z,8.20
2022-12-24T16:57:09.682Z,8.10
2022-12-24T16:59:41.632Z,8.10
2022-12-24T17:02:26.241Z,8.10
2022-12-24T17:05:11.226Z,8.10
2022-12-24T17:07:43.378Z,8.20
2022-12-24T17:10:28.945Z,8.10
2022-12-24T17:13:14.320Z,8.10
2022-12-24T17:15:49.634Z,8.10
2022-12-24T17:18:21.575Z,8.10
2022-12-24T17:20:59.406Z,8.10
2022-12-24T17:23:27.538Z,8.10
2022-12-24T17:25:57.968Z,8.10
2022-12-24T17:28:33.000Z,8.10
2022-12-24T17:31:01.041Z,8.10
2022-12-24T17:33:29.130Z,8.10
2022-12-24T17:35:57.988Z,8.10
2022-12-24T17:38:26.177Z,8.10
2022-12-24T17:41:00.665Z,8.10
2022-12-24T17:43:30.062Z,8.10
2022-12-24T17:45:58.139Z,8.10
2022-12-24T17:48:26.200Z,8.00
2022-12-24T17:50:54.202Z,8.10
2022-12-24T17:53:22.315Z,8.10
2022-12-24T17:55:53.447Z,8.10
2022-12-24T17:58:21.437Z,8.00
2022-12-24T18:00:52.428Z,8.00
2022-12-24T18:03:47.864Z,8.00
2022-12-24T18:06:16.936Z,7.90
2022-12-24T18:08:46.643Z,7.90
2022-12-24T18:11:17.049Z,7.90
2022-12-24T18:13:45.545Z,7.90
2022-12-24T18:16:51.726Z,7.90
2022-12-24T18:19:21.168Z,7.90
2022-12-24T18:21:49.153Z,7.90
2022-12-24T18:24:17.225Z,7.90
2022-12-24T18:26:49.590Z,7.80
2022-12-24T18:29:17.718Z,7.80
2022-12-24T18:31:45.808Z,7.80
2022-12-24T18:34:15.685Z,7.80
2022-12-24T18:36:51.164Z,7.80
2022-12-24T18:39:22.759Z,7.90
2022-12-24T18:41:50.959Z,7.90
2022-12-24T18:44:24.606Z,7.90
2022-12-24T18:47:01.598Z,7.80
2022-12-24T18:49:29.740Z,7.90
2022-12-24T18:51:59.271Z,7.80
2022-12-24T18:54:27.305Z,7.80
2022-12-24T18:56:55.327Z,7.80
2022-12-24T18:59:23.362Z,7.80
2022-12-24T19:01:51.924Z,7.90
2022-12-24T19:04:20.185Z,7.90
2022-12-24T19:06:53.093Z,7.90
2022-12-24T19:09:23.275Z,7.90
2022-12-24T19:11:51.287Z,7.90
2022-12-24T19:14:20.896Z,7.90
2022-12-24T19:16:49.007Z,7.90
2022-12-24T19:19:18.807Z,7.90
2022-12-24T19:21:57.633Z,7.90
2022-12-24T19:24:35.993Z,7.90
2022-12-24T19:27:09.035Z,7.90
2022-12-24T19:29:37.057Z,7.90
2022-12-24T19:32:05.318Z,7.90
2022-12-24T19:34:33.411Z,7.90
2022-12-24T19:37:07.602Z,7.90
2022-12-24T19:39:37.066Z,7.90
2022-12-24T19:42:08.237Z,7.90
2022-12-24T19:44:36.286Z,7.80
2022-12-24T19:47:04.347Z,7.90
2022-12-24T19:49:32.384Z,7.90
2022-12-24T19:52:07.526Z,7.90
2022-12-24T19:54:36.999Z,7.90
2022-12-24T19:57:05.079Z,7.90
2022-12-24T19:59:33.207Z,8.00
2022-12-24T20:02:01.377Z,7.90
2022-12-24T20:04:29.465Z,7.90
2022-12-24T20:07:00.586Z,7.90
2022-12-24T20:09:40.444Z,7.90
2022-12-24T20:12:08.691Z,8.00
2022-12-24T20:14:36.848Z,7.90
2022-12-24T20:17:14.866Z,8.00
2022-12-24T20:19:42.925Z,7.90
2022-12-24T20:22:11.097Z,8.00
2022-12-24T20:24:41.217Z,8.00
2022-12-24T20:27:11.669Z,8.00
2022-12-24T20:29:39.884Z,8.00
2022-12-24T20:32:18.052Z,8.00
2022-12-24T20:34:46.247Z,8.00
2022-12-24T20:37:14.372Z,8.00
2022-12-24T20:39:44.715Z,7.90
2022-12-24T20:42:13.713Z,7.90
2022-12-24T20:44:50.493Z,7.90
2022-12-24T20:47:19.621Z,7.90
2022-12-24T20:49:47.710Z,7.90
2022-12-24T20:52:15.720Z,7.90
2022-12-24T20:54:45.250Z,7.90
2022-12-24T20:57:21.678Z,7.90
2022-12-24T20:59:52.822Z,7.90
2022-12-24T21:02:20.998Z,7.90
2022-12-24T21:04:49.390Z,7.90
2022-12-24T21:07:17.489Z,7.90
2022-12-24T21:09:47.426Z,7.90
2022-12-24T21:12:49.229Z,7.90
2022-12-24T21:15:20.368Z,7.90
2022-12-24T21:17:48.919Z,7.90
2022-12-24T21:20:18.035Z,7.90
2022-12-24T21:22:46.192Z,7.90
2022-12-24T21:25:15.627Z,7.90
2022-12-24T21:27:44.853Z,7.90
2022-12-24T21:30:13.409Z,7.90
2022-12-24T21:32:41.482Z,7.90
2022-12-24T21:35:10.340Z,7.90
2022-12-24T21:37:38.611Z,7.90
2022-12-24T21:40:08.290Z,7.90
2022-12-24T21:42:38.321Z,7.90
2022-12-24T21:45:07.347Z,7.90
2022-12-24T21:47:38.193Z,7.90
2022-12-24T21:50:28.238Z,7.90
2022-12-24T21:53:13.931Z,7.90
2022-12-24T21:55:41.965Z,7.80
2022-12-24T21:58:11.330Z,7.90
2022-12-24T22:00:39.834Z,7.80
2022-12-24T22:03:07.982Z,7.80
2022-12-24T22:05:36.779Z,7.90
2022-12-24T22:08:22.674Z,7.90
2022-12-24T22:11:08.130Z,7.90
2022-12-24T22:13:37.544Z,7.90
2022-12-24T22:16:05.894Z,7.80
2022-12-24T22:18:33.893Z,7.90
2022-12-24T22:21:03.448Z,7.80
2022-12-24T22:23:33.823Z,7.90
2022-12-24T22:26:12.032Z,7.90
2022-12-24T22:28:41.553Z,7.90
2022-12-24T22:31:17.623Z,7.90
2022-12-24T22:33:45.802Z,7.90
2022-12-24T22:36:13.849Z,7.90
2022-12-24T22:38:43.798Z,7.90
2022-12-24T22:41:13.541Z,7.90
2022-12-24T22:43:43.229Z,7.80
2022-12-24T22:46:14.103Z,7.90
2022-12-24T22:48:43.697Z,7.90
2022-12-24T22:51:14.023Z,7.90
2022-12-24T22:53:42.509Z,7.90
2022-12-24T22:56:17.554Z,7.90
2022-12-24T22:58:53.661Z,7.90
2022-12-24T23:01:31.917Z,7.90
2022-12-24T23:04:00.152Z,7.90
2022-12-24T23:06:28.494Z,7.90
2022-12-24T23:08:57.648Z,8.00
2022-12-24T23:11:25.878Z,8.00
2022-12-24T23:14:12.706Z,8.00
2022-12-24T23:16:40.740Z,8.00
2022-12-24T23:19:08.850Z,8.00
2022-12-24T23:21:37.626Z,7.90
2022-12-24T23:24:06.472Z,7.90
2022-12-24T23:26:34.476Z,7.90
2022-12-24T23:29:04.030Z,7.80
2022-12-24T23:31:34.624Z,7.80
2022-12-24T23:34:02.809Z,7.80
2022-12-24T23:36:31.189Z,7.80
2022-12-24T23:38:59.178Z,7.80
2022-12-24T23:41:27.383Z,7.80
2022-12-24T23:43:55.437Z,7.80
2022-12-24T23:46:24.872Z,7.80
2022-12-24T23:48:55.572Z,7.90
2022-12-24T23:51:25.388Z,7.80
2022-12-24T23:53:55.870Z,7.80
2022-12-24T23:56:25.595Z,7.90
2022-12-24T23:58:53.619Z,7.80
